Latest Weather Observations for Lucas Heights

IDN60801

Issued at 5:33 am EDT Thursday 5 March 2015 (issued every 30 minutes, with the page automatically refreshed every 10 minutes)

About weather observations | Map of weather stations | Latest weather observations for NSW | Other Formats
Station Details ID: 066023 Name: LUCAS HEIGHTS AWS Lat: -34.05 Lon: 150.98 Height: 140.0 m
Data from the previous 72 hours. | See also: Recent months for locations in New South Wales
Date/Time
EDT
Temp
°C
App
Temp
°C
Dew
Point
Rel
Hum
%
Delta-T
°C
Wind Press
QNH
hPa
Press
MSL
hPa
Rain
since 9 am
mm
Dir
 
Spd
km/h
Gust
km/h
Spd
kts
Gust
kts
05/05:15am 19.9 20.1 18.6 92 0.8 W 15 20 8 11 1004.3 - 0.0
05/05:00am 20.0 21.1 18.8 93 0.8 W 11 17 6 9 1004.4 - 0.0
05/04:45am 20.2 22.1 19.0 93 0.8 W 7 13 4 7 1004.5 - 0.0
05/04:30am 20.6 22.7 19.4 93 0.8 W 7 11 4 6 1004.5 - 0.0
05/04:15am 20.6 21.7 19.6 94 0.6 WSW 13 19 7 10 1004.8 - 0.0
05/04:00am 20.3 20.8 19.2 93 0.7 WSW 15 17 8 9 1004.9 - 0.0
05/03:45am 20.3 20.8 19.3 94 0.6 WSW 15 19 8 10 1005.2 - 0.0
05/03:30am 20.6 21.3 19.7 95 0.6 W 15 19 8 10 1005.4 - 0.0
05/03:15am 20.5 21.2 19.6 95 0.6 W 15 19 8 10 1005.5 - 0.0
05/03:00am 20.5 20.8 19.6 95 0.6 W 17 20 9 11 1005.7 - 0.0
05/02:45am 20.2 21.5 19.3 95 0.6 W 11 17 6 9 1005.9 - 0.0
05/02:30am 19.1 20.3 18.2 94 0.6 W 9 13 5 7 1006.2 - 0.0
05/02:15am 19.0 20.1 18.0 94 0.6 W 9 11 5 6 1006.5 - 0.0
05/02:00am 19.3 20.5 18.3 94 0.6 W 9 11 5 6 1006.6 - 0.0
05/01:45am 19.4 21.2 18.4 94 0.6 W 6 9 3 5 1006.8 - 0.0
05/01:30am 19.6 21.5 18.6 94 0.6 W 6 9 3 5 1007.1 - 0.0
05/01:15am 19.6 21.5 18.5 93 0.7 W 6 9 3 5 1007.4 - 0.0
05/01:00am 19.6 21.5 18.5 93 0.7 WSW 6 9 3 5 1007.6 - 0.0
05/12:45am 19.5 21.4 18.5 94 0.6 WSW 6 7 3 4 1007.7 - 0.0
05/12:30am 19.6 21.9 18.5 93 0.7 SW 4 6 2 3 1007.9 - 0.0
05/12:15am 19.9 22.3 18.8 93 0.7 WSW 4 6 2 3 1008.0 - 0.0
05/12:00am 20.0 22.4 18.8 93 0.8 WSW 4 7 2 4 1008.2 - 0.0
 
Date/Time
EDT
Temp
°C
App
Temp
°C
Dew
Point
Rel
Hum
%
Delta-T
°C
Wind Press
QNH
hPa
Press
MSL
hPa
Rain
since 9 am
mm
Dir
 
Spd
km/h
Gust
km/h
Spd
kts
Gust
kts
04/11:45pm 20.1 23.3 18.9 93 0.8 CALM 0 2 0 1 1008.3 - 0.0
04/11:30pm 20.3 23.6 19.1 93 0.8 CALM 0 0 0 0 1008.5 - 0.0
04/11:15pm 20.6 24.0 19.3 92 0.8 CALM 0 2 0 1 1008.8 - 0.0
04/11:00pm 20.8 23.5 19.4 92 0.9 NNE 4 6 2 3 1008.9 - 0.0
04/10:45pm 21.0 23.4 19.6 92 0.9 NNE 6 9 3 5 1008.9 - 0.0
04/10:30pm 21.1 23.5 19.7 92 0.9 NE 6 7 3 4 1008.8 - 0.0
04/10:15pm 21.1 23.8 19.5 90 1.0 NE 4 7 2 4 1008.8 - 0.0
04/10:00pm 21.2 24.0 19.6 90 1.0 E 4 6 2 3 1009.0 - 0.0
04/09:45pm 21.4 24.6 19.7 90 1.1 ESE 2 4 1 2 1009.1 - 0.0
04/09:30pm 21.6 24.4 19.7 89 1.2 ESE 4 4 2 2 1009.0 - 0.0
04/09:15pm 21.9 24.4 19.9 88 1.3 E 6 7 3 4 1008.9 - 0.0
04/09:00pm 22.0 24.6 20.0 88 1.3 E 6 7 3 4 1008.7 - 0.0
04/08:45pm 22.2 24.8 20.1 88 1.4 E 6 9 3 5 1008.6 - 0.0
04/08:30pm 22.3 24.7 20.0 87 1.5 E 7 11 4 6 1008.5 - 0.0
04/08:15pm 22.5 24.9 20.1 86 1.6 E 7 11 4 6 1008.4 - 0.0
04/08:00pm 22.8 25.3 20.2 85 1.7 E 7 13 4 7 1008.3 - 0.0
04/07:45pm 23.1 25.6 20.3 84 1.8 E 7 11 4 6 1008.3 - 0.0
04/07:30pm 23.4 25.1 20.2 82 2.1 ENE 11 17 6 9 1008.3 - 0.0
04/07:15pm 23.8 25.2 20.3 81 2.3 ENE 13 19 7 10 1008.1 - 0.0
04/07:00pm 24.3 25.8 20.5 79 2.5 ENE 13 19 7 10 1008.0 - 0.0
04/06:45pm 24.7 26.0 20.9 79 2.5 ENE 15 22 8 12 1008.0 - 0.0
04/06:30pm 24.9 26.6 21.0 79 2.6 ENE 13 20 7 11 1008.1 - 0.0
04/06:15pm 25.5 27.0 21.2 77 2.9 E 15 20 8 11 1008.2 - 0.0
04/06:00pm 25.7 27.2 21.2 76 3.0 ENE 15 20 8 11 1008.2 - 0.0
04/05:45pm 26.0 27.1 21.2 75 3.2 E 17 22 9 12 1008.3 - 0.0
04/05:30pm 26.6 28.5 21.4 73 3.5 E 13 20 7 11 1008.3 - 0.0
04/05:15pm 26.9 28.5 21.5 72 3.6 ENE 15 22 8 12 1008.4 - 0.0
04/05:00pm 27.0 28.7 21.6 72 3.6 ENE 15 22 8 12 1008.4 - 0.0
04/04:45pm 27.1 29.1 21.6 72 3.7 ENE 13 22 7 12 1008.6 - 0.0
04/04:30pm 26.9 28.4 21.3 71 3.7 ENE 15 22 8 12 1008.7 - 0.0
04/04:15pm 27.1 28.7 21.4 71 3.8 ENE 15 20 8 11 1009.0 - 0.0
04/04:00pm 26.8 28.4 20.8 69 4.0 ENE 13 22 7 12 1009.2 - 0.0
04/03:45pm 27.6 29.4 21.1 67 4.3 ENE 13 24 7 13 1009.3 - 0.0
04/03:30pm 27.6 29.0 21.1 67 4.3 NE 15 20 8 11 1009.5 - 0.0
04/03:15pm 27.8 29.6 21.1 67 4.5 ENE 13 19 7 10 1009.6 - 0.0
04/03:00pm 27.4 29.8 20.9 67 4.3 NE 9 19 5 10 1009.8 - 0.0
04/02:45pm 27.3 29.4 20.9 68 4.3 NE 11 20 6 11 1010.1 - 0.0
04/02:30pm 27.3 29.8 21.0 68 4.2 NE 9 17 5 9 1010.3 - 0.0
04/02:15pm 27.3 29.4 21.0 68 4.2 NE 11 19 6 10 1010.5 - 0.0
04/02:00pm 26.8 29.1 20.6 69 4.1 NE 9 13 5 7 1010.7 - 0.0
04/01:45pm 26.4 29.1 20.6 70 3.8 NE 7 11 4 6 1011.0 - 0.0
04/01:30pm 26.4 29.3 20.7 71 3.8 ENE 6 13 3 7 1011.3 - 0.0
04/01:15pm 25.8 28.5 20.3 71 3.6 NNE 6 11 3 6 1011.5 - 0.0
04/01:00pm 25.7 27.9 20.5 73 3.4 NNE 9 13 5 7 1011.6 - 0.0
04/12:45pm 25.5 27.9 20.1 72 3.5 NNE 7 11 4 6 1012.0 - 0.0
04/12:30pm 25.5 28.2 20.2 72 3.5 NNW 6 9 3 5 1012.2 - 0.0
04/12:15pm 25.4 28.1 20.3 73 3.3 N 6 9 3 5 1012.4 - 0.0
04/12:00pm 25.5 28.7 20.5 74 3.3 NE 4 11 2 6 1012.7 - 0.0
04/11:45am 25.5 29.2 20.8 75 3.1 NNE 2 7 1 4 1013.0 - 0.0
04/11:30am 24.6 27.6 20.1 76 2.9 N 4 7 2 4 1013.2 - 0.0
04/11:15am 25.1 28.9 21.0 78 2.7 E 2 7 1 4 1013.4 - 0.0
04/11:00am 24.0 26.8 20.5 81 2.3 SSE 6 7 3 4 1013.6 - 0.0
04/10:45am 23.6 26.1 20.2 81 2.2 SSE 7 13 4 7 1013.8 - 0.0
04/10:30am 22.9 25.4 19.8 83 2.0 SE 6 9 3 5 1013.9 - 0.0
04/10:15am 22.6 24.8 19.6 83 1.9 SE 7 9 4 5 1013.9 - 0.0
04/10:00am 22.5 24.9 19.7 84 1.8 SSE 6 9 3 5 1013.8 - 0.0
04/09:45am 22.2 24.3 19.3 83 1.9 SE 7 9 4 5 1013.8 - 0.0
04/09:30am 22.4 24.6 19.5 84 1.9 SSE 7 11 4 6 1013.7 - 0.0
04/09:15am 22.4 24.7 19.4 83 1.9 SSE 6 9 3 5 1013.7 - 0.0
04/09:00am 22.3 24.5 19.3 83 1.9 SE 6 9 3 5 1013.5 - 0.0
04/08:45am 22.1 24.3 19.3 84 1.8 SE 6 9 3 5 1013.4 - 0.0
04/08:30am 21.5 23.7 19.2 87 1.5 SSE 6 9 3 5 1013.3 - 0.0
04/08:15am 20.6 22.0 18.6 88 1.3 SSE 9 11 5 6 1013.1 - 0.0
04/08:00am 20.1 21.3 18.3 89 1.1 SSE 9 11 5 6 1013.1 - 0.0
04/07:45am 19.6 20.7 18.0 90 1.0 S 9 13 5 7 1013.0 - 0.0
04/07:30am 19.1 20.0 17.6 91 0.9 S 9 13 5 7 1012.9 - 0.0
04/07:15am 19.0 19.8 17.4 90 1.0 S 9 11 5 6 1012.8 - 0.0
04/07:00am 19.1 20.0 17.6 91 0.9 S 9 13 5 7 1012.6 - 0.0
04/06:45am 19.1 19.6 17.5 90 1.0 S 11 13 6 7 1012.6 - 0.0
04/06:30am 19.3 19.9 17.6 90 1.0 S 11 13 6 7 1012.6 - 0.0
04/06:15am 19.5 19.7 17.7 89 1.1 SSE 13 17 7 9 1012.5 - 0.0
04/06:00am 19.5 19.3 17.7 89 1.1 SSE 15 20 8 11 1012.6 - 0.0
04/05:45am 19.6 19.4 17.7 89 1.2 SSE 15 20 8 11 1012.6 - 0.0
04/05:30am 19.7 19.6 17.8 89 1.2 SSE 15 22 8 12 1012.6 - 0.0
04/05:15am 19.8 19.7 17.8 88 1.2 SSE 15 22 8 12 1012.6 - 0.0
04/05:00am 19.8 19.7 17.8 88 1.2 SSE 15 22 8 12 1012.6 - 0.0
04/04:45am 19.9 20.2 17.8 88 1.3 SSE 13 19 7 10 1012.8 - 0.0
04/04:30am 19.9 20.2 17.9 88 1.2 SSE 13 19 7 10 1012.7 - 0.0
04/04:15am 19.9 20.2 17.9 88 1.2 SSE 13 17 7 9 1012.8 - 0.0
04/04:00am 19.9 20.2 17.9 88 1.2 SSE 13 19 7 10 1012.8 - 0.0
04/03:45am 19.8 20.5 17.9 89 1.2 SSE 11 17 6 9 1012.9 - 0.0
04/03:30am 19.8 20.4 17.8 88 1.2 SSE 11 15 6 8 1012.9 - 0.0
04/03:15am 19.8 20.4 17.8 88 1.2 SSE 11 17 6 9 1013.2 - 0.0
04/03:00am 19.9 20.5 17.8 88 1.3 S 11 15 6 8 1013.4 - 0.0
04/02:45am 19.9 20.5 17.8 88 1.3 S 11 13 6 7 1013.4 - 0.0
04/02:30am 19.9 20.6 17.9 88 1.2 S 11 17 6 9 1013.5 - 0.0
04/02:15am 19.9 20.2 17.9 88 1.2 S 13 17 7 9 1013.7 - 0.0
04/02:00am 19.9 20.2 17.9 88 1.2 SSE 13 17 7 9 1013.7 - 0.0
04/01:45am 19.9 20.6 18.0 89 1.2 SSE 11 15 6 8 1013.9 - 0.0
04/01:30am 19.9 20.6 17.9 88 1.2 SSE 11 13 6 7 1014.2 - 0.0
04/01:15am 19.9 20.5 17.7 87 1.4 SSE 11 13 6 7 1014.3 - 0.0
04/01:00am 20.2 21.0 18.1 88 1.3 SSE 11 15 6 8 1014.3 - 0.0
04/12:45am 20.3 21.4 18.1 87 1.4 SSE 9 11 5 6 1014.3 - 0.0
04/12:30am 20.3 21.4 18.1 87 1.4 SSE 9 11 5 6 1014.4 - 0.0
04/12:15am 20.4 21.5 18.1 87 1.4 SE 9 11 5 6 1014.4 - 0.0
04/12:00am 20.5 21.6 18.1 86 1.5 SSE 9 11 5 6 1014.5 - 0.0
 
Date/Time
EDT
Temp
°C
App
Temp
°C
Dew
Point
Rel
Hum
%
Delta-T
°C
Wind Press
QNH
hPa
Press
MSL
hPa
Rain
since 9 am
mm
Dir
 
Spd
km/h
Gust
km/h
Spd
kts
Gust
kts
03/11:45pm 20.6 21.7 18.1 85 1.6 SSE 9 9 5 5 1014.8 - 0.0
03/11:30pm 20.6 22.1 18.1 85 1.6 SSE 7 9 4 5 1014.8 - 0.0
03/11:15pm 20.7 22.2 18.0 84 1.7 SSE 7 9 4 5 1014.7 - 0.0
03/11:00pm 20.9 22.4 18.1 84 1.7 SE 7 9 4 5 1014.7 - 0.0
03/10:45pm 21.0 22.7 18.1 83 1.8 ESE 6 7 3 4 1014.8 - 0.0
03/10:30pm 21.2 23.3 18.1 82 1.9 ESE 4 4 2 2 1014.9 - 0.0
03/10:15pm 21.4 23.9 18.2 82 2.0 E 2 6 1 3 1014.9 - 0.0
03/10:00pm 21.6 23.8 18.3 81 2.1 E 4 6 2 3 1014.9 - 0.0
03/09:45pm 21.5 23.6 18.2 81 2.1 ENE 4 7 2 4 1014.8 - 0.0
03/09:30pm 21.6 23.4 18.2 81 2.1 ENE 6 7 3 4 1014.7 - 0.0
03/09:15pm 21.6 23.3 18.1 80 2.2 E 6 9 3 5 1014.6 - 0.0
03/09:00pm 21.6 23.3 18.0 80 2.2 E 6 9 3 5 1014.5 - 0.0
03/08:45pm 21.7 23.3 17.9 79 2.4 ESE 6 7 3 4 1014.4 - 0.0
03/08:30pm 21.8 23.8 17.9 78 2.4 E 4 6 2 3 1014.4 - 0.0
03/08:15pm 21.9 23.5 17.9 78 2.5 E 6 9 3 5 1014.1 - 0.0
03/08:00pm 22.0 23.4 17.8 77 2.6 E 7 11 4 6 1013.9 - 0.0
03/07:45pm 22.0 22.6 17.7 76 2.7 ENE 11 19 6 10 1013.6 - 0.0
03/07:30pm 22.1 23.1 17.7 76 2.7 ENE 9 15 5 8 1013.7 - 0.0
03/07:15pm 22.1 22.6 17.5 75 2.9 ENE 11 20 6 11 1013.6 - 0.0
03/07:00pm 22.4 22.2 17.5 74 3.0 ENE 15 19 8 10 1013.4 - 0.0
03/06:45pm 22.6 22.8 17.7 74 3.1 E 13 19 7 10 1013.3 - 0.0
03/06:30pm 22.4 22.2 17.6 74 3.0 E 15 22 8 12 1013.2 - 0.0
03/06:15pm 22.4 22.5 17.5 74 3.0 E 13 22 7 12 1013.1 - 0.0
03/06:00pm 22.4 21.3 17.4 73 3.1 E 19 24 10 13 1013.2 - 0.0
03/05:45pm 22.4 21.3 17.4 73 3.1 E 19 30 10 16 1013.1 - 0.0
03/05:30pm 22.3 21.2 17.2 73 3.2 E 19 26 10 14 1013.1 - 0.0
03/05:15pm 22.6 21.5 17.2 71 3.3 E 19 28 10 15 1012.8 - 0.0
03/05:00pm 22.6 21.5 17.2 71 3.3 E 19 28 10 15 1012.8 - 0.0
03/04:45pm 22.7 21.4 16.9 70 3.6 ENE 19 28 10 15 1012.8 - 0.0
03/04:30pm 23.0 22.0 16.7 67 3.9 ENE 17 24 9 13 1012.9 - 0.0
03/04:15pm 23.9 23.4 17.0 65 4.3 ENE 15 24 8 13 1012.9 - 0.0
03/04:00pm 24.5 24.0 17.0 63 4.7 ENE 15 22 8 12 1012.9 - 0.0
03/03:45pm 25.3 23.9 17.1 60 5.1 ENE 20 28 11 15 1012.7 - 0.0
03/03:30pm 26.5 25.7 17.9 59 5.5 ENE 19 26 10 14 1012.8 - 0.0
03/03:15pm 26.5 26.0 17.8 58 5.5 ENE 17 28 9 15 1012.9 - 0.0
03/03:00pm 27.0 26.2 17.9 57 5.8 ENE 19 26 10 14 1012.9 - 0.0
03/02:45pm 26.9 26.0 17.8 57 5.8 ENE 19 24 10 13 1012.9 - 0.0
03/02:30pm 27.1 26.5 17.6 56 6.0 ENE 17 22 9 12 1013.1 - 0.0
03/02:15pm 27.6 27.4 17.5 54 6.4 ENE 15 22 8 12 1013.1 - 0.0
03/02:00pm 27.9 28.6 17.0 51 6.9 ENE 9 19 5 10 1013.1 - 0.0
03/01:45pm 27.4 27.9 16.5 51 6.8 ENE 9 15 5 8 1013.3 - 0.0
03/01:30pm 27.4 28.5 17.0 53 6.5 NE 7 17 4 9 1013.5 - 0.0
03/01:15pm 26.6 27.0 16.4 53 6.3 NE 9 13 5 7 1013.7 - 0.0
03/01:00pm 26.5 27.0 16.5 54 6.2 NNE 9 15 5 8 1014.1 - 0.0
03/12:45pm 25.8 26.5 16.2 55 5.9 NNE 7 15 4 8 1014.3 - 0.0
03/12:30pm 25.4 25.7 16.0 56 5.8 N 9 19 5 10 1014.6 - 0.0
03/12:15pm 25.1 25.8 16.0 57 5.6 N 7 15 4 8 1015.1 - 0.0
03/12:00pm 24.6 25.2 15.7 57 5.4 NNW 7 19 4 10 1015.4 - 0.0
03/11:45am 24.3 24.1 15.6 58 5.3 - 11 20 6 11 1015.5 - 0.0
03/11:30am 24.1 23.6 15.8 59 5.1 N 13 22 7 12 1015.6 - 0.0
03/11:15am 23.6 22.9 15.4 60 5.0 N 13 26 7 14 1015.7 - 0.0
03/11:00am 23.3 23.2 16.1 64 4.4 NNW 11 22 6 12 1015.7 - 0.0
03/10:45am 22.5 22.0 15.8 66 4.1 NNW 13 22 7 12 1015.8 - 0.0
03/10:30am 22.2 22.1 15.9 67 3.8 NNW 11 19 6 10 1015.9 - 0.0
03/10:15am 21.7 21.2 15.8 69 3.6 NNW 13 22 7 12 1016.0 - 0.0
03/10:00am 21.1 20.9 15.7 71 3.2 NW 11 20 6 11 1016.3 - 0.0
03/09:45am 20.8 20.2 15.6 72 3.1 NW 13 24 7 13 1016.2 - 0.0
03/09:30am 20.1 19.8 15.4 74 2.8 NW 11 17 6 9 1016.2 - 0.0
03/09:15am 19.7 19.3 15.3 76 2.6 WNW 11 17 6 9 1016.0 - 0.0
03/09:00am 19.2 19.2 15.2 77 2.4 WNW 9 15 5 8 1015.8 - 0.0
03/08:45am 18.9 19.2 15.1 78 2.2 WNW 7 13 4 7 1015.6 - 0.0
03/08:30am 18.7 19.2 15.5 81 1.9 WNW 7 13 4 7 1015.6 - 0.0
03/08:15am 18.2 18.8 15.7 85 1.5 WNW 7 13 4 7 1015.5 - 0.0
03/08:00am 17.1 17.4 15.0 87 1.2 WNW 7 9 4 5 1015.5 - 0.0
03/07:45am 16.3 15.9 14.1 87 1.3 WNW 9 11 5 6 1015.4 - 0.0
03/07:30am 16.3 15.9 14.2 87 1.2 W 9 13 5 7 1015.3 - 0.0
03/07:15am 16.3 15.6 14.3 88 1.1 W 11 13 6 7 1015.2 - 0.0
03/07:00am 16.0 14.9 14.2 89 1.0 W 13 15 7 8 1015.2 - 0.0
03/06:45am 16.3 15.8 14.9 91 0.8 W 11 13 6 7 1015.1 - 0.0
03/06:30am 14.7 13.7 13.4 92 0.7 WNW 11 13 6 7 1014.8 - 0.0
03/06:15am 14.5 13.4 13.2 92 0.7 WNW 11 13 6 7 1014.8 - 0.0
03/06:00am 14.5 13.0 13.1 91 0.8 WNW 13 13 7 7 1014.9 - 0.0
03/05:45am 14.4 13.6 13.0 91 0.8 WNW 9 13 5 7 1014.9 - 0.0
03/05:30am 14.4 13.3 13.0 91 0.8 WNW 11 13 6 7 1014.9 - 0.0
03/05:15am 14.5 13.7 13.0 91 0.8 WNW 9 13 5 7 1015.0 - 0.0
03/05:00am 14.8 14.1 13.2 90 0.9 WNW 9 11 5 6 1015.0 - 0.0
03/04:45am 15.4 14.6 13.9 91 0.9 WNW 11 13 6 7 1015.0 - 0.0
03/04:30am 15.1 14.1 13.5 90 0.9 WNW 11 13 6 7 1015.1 - 0.0
03/04:15am 14.9 14.2 13.3 90 0.9 NW 9 11 5 6 1015.0 - 0.0
03/04:00am 15.1 15.0 13.4 89 1.0 WNW 6 7 3 4 1015.2 - 0.0
03/03:45am 15.3 15.3 13.5 89 1.0 NW 6 7 3 4 1015.3 - 0.0
03/03:30am 15.5 15.5 13.6 88 1.1 NW 6 7 3 4 1015.6 - 0.0
03/03:15am 15.6 15.6 13.7 88 1.1 NW 6 7 3 4 1015.7 - 0.0
03/03:00am 15.8 15.9 13.8 88 1.1 NW 6 7 3 4 1015.9 - 0.0
03/02:45am 16.0 16.1 13.9 87 1.2 NW 6 7 3 4 1016.0 - 0.0
03/02:30am 16.4 16.5 14.0 86 1.4 NNW 6 7 3 4 1016.2 - 0.0
03/02:15am 16.7 16.7 14.3 86 1.4 NNW 7 9 4 5 1016.4 - 0.0
03/02:00am 16.9 17.2 14.5 86 1.4 NNW 6 7 3 4 1016.7 - 0.0
03/01:45am 17.1 17.3 14.6 85 1.4 NW 7 9 4 5 1017.0 - 0.0
03/01:30am 17.0 17.1 14.5 85 1.4 NW 7 9 4 5 1017.3 - 0.0
03/01:15am 16.8 16.8 14.1 84 1.5 NNW 7 9 4 5 1017.4 - 0.0
03/01:00am 17.0 17.0 14.3 84 1.6 NNW 7 9 4 5 1017.5 - 0.0
03/12:45am 16.8 16.8 14.2 85 1.5 NNW 7 9 4 5 1017.7 - 0.0
03/12:30am 16.8 17.0 14.1 84 1.5 N 6 9 3 5 1017.7 - 0.0
03/12:15am 16.7 16.9 14.1 85 1.5 N 6 9 3 5 1017.8 - 0.0
03/12:00am 16.4 16.5 13.9 85 1.4 NNW 6 7 3 4 1018.0 - 0.0
 
Date/Time
EDT
Temp
°C
App
Temp
°C
Dew
Point
Rel
Hum
%
Delta-T
°C
Wind Press
QNH
hPa
Press
MSL
hPa
Rain
since 9 am
mm
Dir
 
Spd
km/h
Gust
km/h
Spd
kts
Gust
kts
02/11:45pm 16.2 16.2 13.6 84 1.5 N 6 7 3 4 1018.0 - 0.0
02/11:30pm 16.2 16.1 13.4 83 1.6 N 6 7 3 4 1018.0 - 0.0
02/11:15pm 16.6 16.3 13.4 81 1.8 - 7 7 4 4 1017.9 - 0.0
02/11:00pm 17.1 16.9 13.6 80 2.0 N 7 9 4 5 1017.9 - 0.0
02/10:45pm 17.2 16.6 13.6 79 2.0 - 9 13 5 7 1017.9 - 0.0
02/10:30pm 17.1 16.1 13.5 79 2.0 N 11 13 6 7 1017.9 - 0.0
02/10:15pm 17.4 16.0 13.4 77 2.3 NNE 13 15 7 8 1017.8 - 0.0
02/10:00pm 17.6 16.2 13.4 76 2.4 NNE 13 13 7 7 1017.7 - 0.0
02/09:45pm 17.8 16.4 13.5 76 2.4 NNE 13 15 7 8 1017.8 - 0.0
02/09:30pm 18.0 17.0 13.5 75 2.6 NNE 11 13 6 7 1017.7 - 0.0
02/09:15pm 18.3 17.4 13.6 74 2.7 NE 11 13 6 7 1017.7 - 0.0
02/09:00pm 18.4 17.5 13.6 73 2.7 NE 11 13 6 7 1017.8 - 0.0
02/08:45pm 18.8 18.3 13.7 72 2.9 NE 9 9 5 5 1017.9 - 0.0
02/08:30pm 19.1 18.6 13.9 72 3.0 ENE 9 11 5 6 1017.8 - 0.0
02/08:15pm 19.4 18.9 13.9 70 3.2 NE 9 13 5 7 1017.7 - 0.0
02/08:00pm 19.8 19.0 14.0 69 3.4 NE 11 17 6 9 1017.6 - 0.0
02/07:45pm 20.2 19.8 14.1 68 3.6 ENE 9 13 5 7 1017.4 - 0.0
02/07:30pm 20.6 19.9 14.2 66 3.7 ENE 11 15 6 8 1017.1 - 0.0
02/07:15pm 20.8 19.7 14.2 66 3.9 ENE 13 19 7 10 1017.1 - 0.0
02/07:00pm 20.9 20.5 14.2 65 3.9 ENE 9 17 5 9 1017.1 - 0.0
02/06:45pm 21.5 20.8 14.4 64 4.2 ENE 11 17 6 9 1017.0 - 0.0
02/06:30pm 21.8 21.3 15.0 65 4.0 E 11 20 6 11 1016.9 - 0.0
02/06:15pm 21.4 20.4 14.7 65 4.0 E 13 20 7 11 1016.9 - 0.0
02/06:00pm 21.3 20.6 15.3 68 3.6 E 13 22 7 12 1016.9 - 0.0
02/05:45pm 21.3 20.7 15.6 70 3.4 E 13 19 7 10 1016.8 - 0.0
02/05:30pm 21.5 20.9 15.7 69 3.5 ESE 13 19 7 10 1016.8 - 0.0
02/05:15pm 21.5 21.8 16.1 71 3.3 ESE 9 19 5 10 1016.8 - 0.0
02/05:00pm 21.3 20.9 16.2 72 3.1 ESE 13 19 7 10 1016.8 - 0.0
02/04:45pm 21.2 20.4 16.0 72 3.1 ESE 15 22 8 12 1016.8 - 0.0
02/04:30pm 21.3 20.5 16.2 72 3.1 ESE 15 24 8 13 1016.8 - 0.0
02/04:15pm 21.3 21.0 16.4 73 3.0 ESE 13 24 7 13 1016.9 - 0.0
02/04:00pm 21.4 21.1 16.4 73 3.0 ESE 13 22 7 12 1016.9 - 0.0
02/03:45pm 21.3 21.4 16.4 73 3.0 ESE 11 17 6 9 1017.2 - 0.0
02/03:30pm 21.3 20.9 16.2 72 3.1 ESE 13 22 7 12 1017.3 - 0.0
02/03:15pm 21.2 20.4 16.2 73 3.0 SE 15 22 8 12 1017.5 - 0.0
02/03:00pm 21.4 20.2 16.1 72 3.2 ESE 17 22 9 12 1017.6 - 0.0
02/02:45pm 21.4 19.9 16.2 72 3.2 ESE 19 24 10 13 1017.7 - 0.0
02/02:30pm 21.8 21.4 16.3 71 3.3 SE 13 24 7 13 1017.7 - 0.0
02/02:15pm 21.8 21.9 16.5 72 3.2 ESE 11 19 6 10 1017.9 - 0.0
02/02:00pm 21.5 20.8 16.3 72 3.2 ESE 15 22 8 12 1018.1 - 0.0
02/01:45pm 21.4 21.0 16.2 72 3.2 SSE 13 20 7 11 1018.3 - 0.0
02/01:30pm 21.5 20.8 16.3 72 3.2 SSE 15 22 8 12 1018.4 - 0.0
02/01:15pm 21.6 21.6 16.3 72 3.2 SSE 11 20 6 11 1018.5 - 0.0
02/01:00pm 21.5 21.1 16.3 72 3.2 SSE 13 20 7 11 1018.7 - 0.0
02/12:45pm 21.2 20.4 16.0 72 3.1 SSE 15 24 8 13 1018.8 - 0.0
02/12:30pm 21.2 19.6 15.9 72 3.2 SSE 19 30 10 16 1018.9 - 0.0
02/12:15pm 21.1 20.2 15.8 71 3.2 SSE 15 26 8 14 1019.0 - 0.0
02/12:00pm 21.2 20.3 15.8 71 3.2 SSE 15 22 8 12 1019.2 - 0.0
02/11:45am 21.0 19.0 15.5 71 3.3 SSE 20 30 11 16 1019.1 - 0.0
02/11:30am 21.2 19.4 15.6 70 3.4 SSE 19 26 10 14 1019.0 - 0.0
02/11:15am 20.9 19.4 15.4 71 3.3 SSE 17 28 9 15 1019.0 - 0.0
02/11:00am 20.7 18.2 15.1 70 3.3 SSE 22 33 12 18 1019.1 - 0.0
02/10:45am 20.9 19.4 15.2 70 3.4 SSE 17 33 9 18 1018.9 - 0.0
02/10:30am 20.7 19.1 15.0 70 3.4 SSE 17 32 9 17 1018.9 - 0.0
02/10:15am 20.7 18.1 14.9 69 3.4 SE 22 33 12 18 1019.0 - 0.0
02/10:00am 20.4 18.8 15.0 71 3.2 SSE 17 24 9 13 1019.0 - 0.0
02/09:45am 20.1 19.2 14.8 71 3.1 S 13 20 7 11 1019.0 - 0.0
02/09:30am 19.6 17.8 14.4 72 3.0 S 17 26 9 14 1019.0 - 0.0
02/09:15am 19.3 18.2 14.2 72 3.0 S 13 22 7 12 1018.8 - 0.0
02/09:00am 19.1 17.1 14.0 72 2.9 S 17 24 9 13 1018.7 - 13.9
02/08:45am 19.3 17.7 14.0 71 3.1 S 15 24 8 13 1018.5 - 13.9
02/08:30am 19.3 18.2 14.2 72 3.0 S 13 22 7 12 1018.4 - 13.9
02/08:15am 18.6 17.4 14.0 74 2.7 S 13 19 7 10 1018.4 - 13.9
02/08:00am 17.8 16.5 13.6 76 2.4 S 13 20 7 11 1018.3 - 13.9
02/07:45am 17.2 15.4 13.4 78 2.2 S 15 24 8 13 1018.1 - 13.9
02/07:30am 16.5 15.0 13.1 80 1.9 S 13 20 7 11 1017.9 - 13.9
02/07:15am 16.0 14.0 12.6 80 1.9 S 15 22 8 12 1017.7 - 13.9
02/07:00am 15.7 14.0 12.4 81 1.8 S 13 22 7 12 1017.6 - 13.9
02/06:45am 15.5 14.1 12.1 80 1.9 S 11 17 6 9 1017.3 - 13.9
02/06:30am 15.6 13.4 12.1 80 1.9 S 15 22 8 12 1017.0 - 13.9
02/06:15am 15.7 13.8 11.9 78 2.1 S 13 20 7 11 1017.0 - 13.9
02/06:00am 15.9 14.4 12.0 77 2.1 S 11 20 6 11 1017.1 - 13.9
02/05:45am 15.9 13.6 11.8 76 2.2 S 15 20 8 11 1017.0 - 13.9

Other Formats:

Comma delimited format used in spreadsheet applications
http://www.bom.gov.au/fwo/IDN60801/IDN60801.95757.axf

JavaScript Object Notation format (JSON) in row-major order
http://www.bom.gov.au/fwo/IDN60801/IDN60801.95757.json